PWSweather.com
Personal Weather Stations
Station Observations
MADWEATHER
MadeiraPT

MadeiraPT

Lat: 32.735, Lon: -17.194

Elevation: 1063

Station Type: Davis VantagePro2

www.mad-weather.com

High Low Average
Temperature 75.9°F24.4°F 65.3°F18.5°F 69.4°F20.8°F
Dew Point 64.7°F18.2°F 56.9°F13.8°F 61.8°F16.6°F
Winds 10.3 mph -16.6 mph - Calm Calm 3.3 mph 5.3 mph
Wind Gusts 16.0 mph25.7 mph -- 4.9 mph7.9 mph
Humidity 85% 67% 77%
Pressure 30.14 in1020.70 in 30.07 in1018.30 in -
Precipitation 0.00 in0.00 in - -
Hour Temp Dew Point Humidity Winds Wind Gusts Pressure Precip Precip Rate Daily Precip Total
12:00 AM 67.0°F19.4°C 60.9°F16.1°C 81% 1.3 mph S2.1 kmh S 3.0 mph4.8 kmh 30.14 in1020.7 mb - 0.00 in0.0 mm 0.00 in0.0 mm
12:10 AM 67.0°F19.4°C 61.3°F16.3°C 82% Calm Calm -- 30.14 in1020.7 mb - 0.00 in0.0 mm 0.00 in0.0 mm
12:20 AM 67.2°F19.6°C 62.2°F16.8°C 84% Calm Calm -- 30.14 in1020.7 mb - 0.00 in0.0 mm 0.00 in0.0 mm
12:30 AM 67.4°F19.7°C 62.4°F16.9°C 84% Calm Calm -- 30.14 in1020.7 mb - 0.00 in0.0 mm 0.00 in0.0 mm
12:40 AM 67.5°F19.7°C 62.5°F16.9°C 84% Calm Calm -- 30.13 in1020.3 mb - 0.00 in0.0 mm 0.00 in0.0 mm
12:50 AM 67.7°F19.8°C 63.0°F17.2°C 85% Calm Calm -- 30.13 in1020.3 mb - 0.00 in0.0 mm 0.00 in0.0 mm
01:00 AM 67.7°F19.8°C 62.7°F17.1°C 84% Calm Calm -- 30.13 in1020.3 mb - 0.00 in0.0 mm 0.00 in0.0 mm
01:10 AM 67.5°F19.7°C 62.2°F16.8°C 83% 2.8 mph S4.5 kmh S 3.0 mph4.8 kmh 30.12 in1020.0 mb - 0.00 in0.0 mm 0.00 in0.0 mm
01:20 AM 67.1°F19.5°C 61.4°F16.3°C 82% 3.2 mph S5.1 kmh S 4.0 mph6.4 kmh 30.12 in1020.0 mb - 0.00 in0.0 mm 0.00 in0.0 mm
01:30 AM 66.9°F19.4°C 61.2°F16.2°C 82% 3.2 mph S5.1 kmh S 4.0 mph6.4 kmh 30.11 in1019.6 mb - 0.00 in0.0 mm 0.00 in0.0 mm
01:40 AM 66.7°F19.3°C 61.0°F16.1°C 82% 0.4 mph S0.6 kmh S 4.0 mph6.4 kmh 30.11 in1019.6 mb - 0.00 in0.0 mm 0.00 in0.0 mm
01:50 AM 66.4°F19.1°C 60.8°F16.0°C 82% 3.3 mph S5.3 kmh S 4.0 mph6.4 kmh 30.11 in1019.6 mb - 0.00 in0.0 mm 0.00 in0.0 mm
02:00 AM 66.4°F19.1°C 60.0°F15.6°C 80% 3.7 mph S6.0 kmh S 5.0 mph8.0 kmh 30.11 in1019.6 mb - 0.00 in0.0 mm 0.00 in0.0 mm
02:10 AM 66.6°F19.2°C 57.6°F14.2°C 73% 4.6 mph S7.4 kmh S 7.0 mph11.3 kmh 30.10 in1019.3 mb - 0.00 in0.0 mm 0.00 in0.0 mm
02:20 AM 67.3°F19.6°C 57.6°F14.2°C 71% 5.5 mph S8.9 kmh S 6.0 mph9.7 kmh 30.10 in1019.3 mb - 0.00 in0.0 mm 0.00 in0.0 mm
02:30 AM 68.0°F20.0°C 57.8°F14.3°C 70% 4.9 mph S7.9 kmh S 6.0 mph9.7 kmh 30.10 in1019.3 mb - 0.00 in0.0 mm 0.00 in0.0 mm
02:40 AM 67.7°F19.8°C 57.6°F14.2°C 70% 4.5 mph S7.2 kmh S 6.0 mph9.7 kmh 30.10 in1019.3 mb - 0.00 in0.0 mm 0.00 in0.0 mm
02:50 AM 67.6°F19.8°C 57.5°F14.2°C 70% 4.7 mph S7.6 kmh S 5.0 mph8.0 kmh 30.09 in1019.0 mb - 0.00 in0.0 mm 0.00 in0.0 mm
03:00 AM 67.4°F19.7°C 57.7°F14.3°C 71% 3.6 mph S5.8 kmh S 5.0 mph8.0 kmh 30.09 in1019.0 mb - 0.00 in0.0 mm 0.00 in0.0 mm
03:10 AM 67.3°F19.6°C 57.6°F14.2°C 71% 4.7 mph S7.6 kmh S 5.0 mph8.0 kmh 30.09 in1019.0 mb - 0.00 in0.0 mm 0.00 in0.0 mm
03:20 AM 67.3°F19.6°C 57.6°F14.2°C 71% 4.7 mph S7.6 kmh S 6.0 mph9.7 kmh 30.09 in1019.0 mb - 0.00 in0.0 mm 0.00 in0.0 mm
03:30 AM 67.3°F19.6°C 57.6°F14.2°C 71% 4.7 mph S7.6 kmh S 5.0 mph8.0 kmh 30.08 in1018.6 mb - 0.00 in0.0 mm 0.00 in0.0 mm
03:40 AM 67.4°F19.7°C 57.7°F14.3°C 71% 3.9 mph S6.3 kmh S 5.0 mph8.0 kmh 30.08 in1018.6 mb - 0.00 in0.0 mm 0.00 in0.0 mm
03:50 AM 67.4°F19.7°C 57.7°F14.3°C 71% 2.2 mph S3.5 kmh S 3.0 mph4.8 kmh 30.08 in1018.6 mb - 0.00 in0.0 mm 0.00 in0.0 mm
04:00 AM 67.0°F19.4°C 57.6°F14.2°C 72% 3.2 mph S5.1 kmh S 4.0 mph6.4 kmh 30.08 in1018.6 mb - 0.00 in0.0 mm 0.00 in0.0 mm
04:10 AM 66.7°F19.3°C 57.4°F14.1°C 72% 3.1 mph S5.0 kmh S 4.0 mph6.4 kmh 30.08 in1018.6 mb - 0.00 in0.0 mm 0.00 in0.0 mm
04:20 AM 66.5°F19.2°C 57.2°F14.0°C 72% 2.5 mph S4.0 kmh S 3.0 mph4.8 kmh 30.08 in1018.6 mb - 0.00 in0.0 mm 0.00 in0.0 mm
04:30 AM 66.5°F19.2°C 57.2°F14.0°C 72% 1.6 mph S2.6 kmh S 2.0 mph3.2 kmh 30.08 in1018.6 mb - 0.00 in0.0 mm 0.00 in0.0 mm
04:40 AM 66.2°F19.0°C 57.3°F14.1°C 73% 1.3 mph S2.1 kmh S 2.0 mph3.2 kmh 30.08 in1018.6 mb - 0.00 in0.0 mm 0.00 in0.0 mm
04:50 AM 65.7°F18.7°C 57.2°F14.0°C 74% 2.5 mph S4.0 kmh S 3.0 mph4.8 kmh 30.08 in1018.6 mb - 0.00 in0.0 mm 0.00 in0.0 mm
05:00 AM 65.7°F18.7°C 58.3°F14.6°C 77% 2.7 mph S4.3 kmh S 3.0 mph4.8 kmh 30.09 in1019.0 mb - 0.00 in0.0 mm 0.00 in0.0 mm
05:10 AM 66.1°F18.9°C 60.1°F15.6°C 81% Calm Calm -- 30.09 in1019.0 mb - 0.00 in0.0 mm 0.00 in0.0 mm
05:20 AM 66.1°F18.9°C 59.8°F15.4°C 80% 3.0 mph S4.8 kmh S 4.0 mph6.4 kmh 30.09 in1019.0 mb - 0.00 in0.0 mm 0.00 in0.0 mm
05:30 AM 65.8°F18.8°C 59.5°F15.3°C 80% 3.4 mph S5.5 kmh S 4.0 mph6.4 kmh 30.09 in1019.0 mb - 0.00 in0.0 mm 0.00 in0.0 mm
05:40 AM 65.7°F18.7°C 57.6°F14.2°C 75% 3.1 mph S5.0 kmh S 6.0 mph9.7 kmh 30.09 in1019.0 mb - 0.00 in0.0 mm 0.00 in0.0 mm
05:50 AM 66.0°F18.9°C 58.2°F14.6°C 76% 3.3 mph S5.3 kmh S 4.0 mph6.4 kmh 30.09 in1019.0 mb - 0.00 in0.0 mm 0.00 in0.0 mm
06:00 AM 65.8°F18.8°C 56.9°F13.8°C 73% 3.0 mph S4.8 kmh S 3.0 mph4.8 kmh 30.09 in1019.0 mb - 0.00 in0.0 mm 0.00 in0.0 mm
06:10 AM 66.0°F18.9°C 58.6°F14.8°C 77% 2.7 mph S4.3 kmh S 3.0 mph4.8 kmh 30.09 in1019.0 mb - 0.00 in0.0 mm 0.00 in0.0 mm
06:20 AM 65.8°F18.8°C 57.3°F14.1°C 74% 4.5 mph S7.2 kmh S 6.0 mph9.7 kmh 30.09 in1019.0 mb - 0.00 in0.0 mm 0.00 in0.0 mm
06:30 AM 65.7°F18.7°C 58.0°F14.4°C 76% 4.4 mph S7.1 kmh S 5.0 mph8.0 kmh 30.09 in1019.0 mb - 0.00 in0.0 mm 0.00 in0.0 mm
06:40 AM 65.7°F18.7°C 59.4°F15.2°C 80% 4.7 mph S7.6 kmh S 6.0 mph9.7 kmh 30.09 in1019.0 mb - 0.00 in0.0 mm 0.00 in0.0 mm
06:50 AM 65.8°F18.8°C 59.8°F15.4°C 81% 4.2 mph S6.8 kmh S 5.0 mph8.0 kmh 30.09 in1019.0 mb - 0.00 in0.0 mm 0.00 in0.0 mm
07:00 AM 65.9°F18.8°C 59.9°F15.5°C 81% Calm Calm -- 30.09 in1019.0 mb - 0.00 in0.0 mm 0.00 in0.0 mm
07:10 AM 65.5°F18.6°C 58.8°F14.9°C 79% 2.4 mph S3.9 kmh S 3.0 mph4.8 kmh 30.10 in1019.3 mb - 0.00 in0.0 mm 0.00 in0.0 mm
07:20 AM 65.3°F18.5°C 58.3°F14.6°C 78% 3.4 mph S5.5 kmh S 4.0 mph6.4 kmh 30.10 in1019.3 mb - 0.00 in0.0 mm 0.00 in0.0 mm
07:30 AM 65.7°F18.7°C 58.3°F14.6°C 77% 2.4 mph S3.9 kmh S 3.0 mph4.8 kmh 30.10 in1019.3 mb - 0.00 in0.0 mm 0.00 in0.0 mm
07:40 AM 66.6°F19.2°C 58.8°F14.9°C 76% 2.1 mph S3.4 kmh S 3.0 mph4.8 kmh 30.10 in1019.3 mb - 0.00 in0.0 mm 0.00 in0.0 mm
07:50 AM 67.0°F19.4°C 58.8°F14.9°C 75% 1.0 mph S1.6 kmh S 2.0 mph3.2 kmh 30.10 in1019.3 mb - 0.00 in0.0 mm 0.00 in0.0 mm
08:00 AM 67.6°F19.8°C 59.4°F15.2°C 75% Calm Calm -- 30.10 in1019.3 mb - 0.00 in0.0 mm 0.00 in0.0 mm
08:10 AM 69.2°F20.7°C 62.4°F16.9°C 79% Calm Calm -- 30.10 in1019.3 mb - 0.00 in0.0 mm 0.00 in0.0 mm
08:20 AM 69.9°F21.1°C 62.3°F16.8°C 77% Calm Calm -- 30.10 in1019.3 mb - 0.00 in0.0 mm 0.00 in0.0 mm
08:30 AM 70.4°F21.3°C 62.9°F17.2°C 77% Calm Calm 2.0 mph3.2 kmh 30.10 in1019.3 mb - 0.00 in0.0 mm 0.00 in0.0 mm
08:40 AM 70.1°F21.2°C 62.9°F17.2°C 78% 2.4 mph S3.9 kmh S 3.0 mph4.8 kmh 30.10 in1019.3 mb - 0.00 in0.0 mm 0.00 in0.0 mm
08:50 AM 70.0°F21.1°C 63.2°F17.3°C 79% 1.9 mph S3.1 kmh S 3.0 mph4.8 kmh 30.10 in1019.3 mb - 0.00 in0.0 mm 0.00 in0.0 mm
09:00 AM 70.1°F21.2°C 63.3°F17.4°C 79% 2.4 mph S3.9 kmh S 3.0 mph4.8 kmh 30.11 in1019.6 mb - 0.00 in0.0 mm 0.00 in0.0 mm
09:10 AM 70.3°F21.3°C 63.5°F17.5°C 79% 2.6 mph S4.2 kmh S 4.0 mph6.4 kmh 30.11 in1019.6 mb - 0.00 in0.0 mm 0.00 in0.0 mm
09:20 AM 70.6°F21.4°C 63.1°F17.3°C 77% 1.8 mph S2.9 kmh S 4.0 mph6.4 kmh 30.12 in1020.0 mb - 0.00 in0.0 mm 0.00 in0.0 mm
09:30 AM 70.6°F21.4°C 63.4°F17.4°C 78% 4.4 mph S7.1 kmh S 6.0 mph9.7 kmh 30.12 in1020.0 mb - 0.00 in0.0 mm 0.00 in0.0 mm
09:40 AM 71.3°F21.8°C 64.1°F17.8°C 78% 2.7 mph S4.3 kmh S 4.0 mph6.4 kmh 30.12 in1020.0 mb - 0.00 in0.0 mm 0.00 in0.0 mm
09:50 AM 72.0°F22.2°C 64.1°F17.8°C 76% 3.3 mph S5.3 kmh S 5.0 mph8.0 kmh 30.12 in1020.0 mb - 0.00 in0.0 mm 0.00 in0.0 mm
10:00 AM 71.0°F21.7°C 63.8°F17.7°C 78% 2.3 mph S3.7 kmh S 4.0 mph6.4 kmh 30.12 in1020.0 mb - 0.00 in0.0 mm 0.00 in0.0 mm
10:10 AM 71.0°F21.7°C 64.1°F17.8°C 79% 3.9 mph S6.3 kmh S 7.0 mph11.3 kmh 30.13 in1020.3 mb - 0.00 in0.0 mm 0.00 in0.0 mm
10:20 AM 71.1°F21.7°C 63.9°F17.7°C 78% 4.4 mph S7.1 kmh S 6.0 mph9.7 kmh 30.13 in1020.3 mb - 0.00 in0.0 mm 0.00 in0.0 mm
10:30 AM 71.1°F21.7°C 63.9°F17.7°C 78% 1.4 mph S2.3 kmh S 5.0 mph8.0 kmh 30.14 in1020.7 mb - 0.00 in0.0 mm 0.00 in0.0 mm
10:40 AM 71.2°F21.8°C 64.0°F17.8°C 78% 5.2 mph S8.4 kmh S 9.0 mph14.5 kmh 30.14 in1020.7 mb - 0.00 in0.0 mm 0.00 in0.0 mm
10:50 AM 71.1°F21.7°C 63.5°F17.5°C 77% 3.9 mph S6.3 kmh S 6.0 mph9.7 kmh 30.14 in1020.7 mb - 0.00 in0.0 mm 0.00 in0.0 mm
11:00 AM 70.9°F21.6°C 63.7°F17.6°C 78% 3.3 mph S5.3 kmh S 5.0 mph8.0 kmh 30.14 in1020.7 mb - 0.00 in0.0 mm 0.00 in0.0 mm
11:10 AM 71.4°F21.9°C 63.4°F17.4°C 76% 3.7 mph S6.0 kmh S 4.0 mph6.4 kmh 30.13 in1020.3 mb - 0.00 in0.0 mm 0.00 in0.0 mm
11:20 AM 72.1°F22.3°C 64.5°F18.1°C 77% 3.8 mph S6.1 kmh S 8.0 mph12.9 kmh 30.14 in1020.7 mb - 0.00 in0.0 mm 0.00 in0.0 mm
11:30 AM 72.3°F22.4°C 64.0°F17.8°C 75% 5.0 mph S8.0 kmh S 8.0 mph12.9 kmh 30.14 in1020.7 mb - 0.00 in0.0 mm 0.00 in0.0 mm
11:40 AM 71.2°F21.8°C 64.0°F17.8°C 78% 4.4 mph S7.1 kmh S 7.0 mph11.3 kmh 30.14 in1020.7 mb - 0.00 in0.0 mm 0.00 in0.0 mm
11:50 AM 71.4°F21.9°C 64.2°F17.9°C 78% 4.0 mph S6.4 kmh S 5.0 mph8.0 kmh 30.14 in1020.7 mb - 0.00 in0.0 mm 0.00 in0.0 mm
12:00 PM 71.4°F21.9°C 63.4°F17.4°C 76% 3.8 mph S6.1 kmh S 6.0 mph9.7 kmh 30.14 in1020.7 mb - 0.00 in0.0 mm 0.00 in0.0 mm
12:10 PM 71.5°F21.9°C 64.3°F17.9°C 78% 4.1 mph S6.6 kmh S 6.0 mph9.7 kmh 30.14 in1020.7 mb - 0.00 in0.0 mm 0.00 in0.0 mm
12:20 PM 71.7°F22.1°C 63.8°F17.7°C 76% 4.0 mph S6.4 kmh S 5.0 mph8.0 kmh 30.13 in1020.3 mb - 0.00 in0.0 mm 0.00 in0.0 mm
12:30 PM 72.2°F22.3°C 63.8°F17.7°C 75% 3.0 mph S4.8 kmh S 5.0 mph8.0 kmh 30.13 in1020.3 mb - 0.00 in0.0 mm 0.00 in0.0 mm
12:40 PM 71.3°F21.8°C 63.3°F17.4°C 76% 3.7 mph S6.0 kmh S 4.0 mph6.4 kmh 30.12 in1020.0 mb - 0.00 in0.0 mm 0.00 in0.0 mm
12:50 PM 71.4°F21.9°C 63.4°F17.4°C 76% 2.6 mph S4.2 kmh S 5.0 mph8.0 kmh 30.12 in1020.0 mb - 0.00 in0.0 mm 0.00 in0.0 mm
01:00 PM 71.2°F21.8°C 63.6°F17.6°C 77% 2.3 mph S3.7 kmh S 4.0 mph6.4 kmh 30.12 in1020.0 mb - 0.00 in0.0 mm 0.00 in0.0 mm
01:10 PM 71.6°F22.0°C 63.6°F17.6°C 76% 3.8 mph S6.1 kmh S 5.0 mph8.0 kmh 30.11 in1019.6 mb - 0.00 in0.0 mm 0.00 in0.0 mm
01:20 PM 71.6°F22.0°C 63.6°F17.6°C 76% 4.2 mph S6.8 kmh S 5.0 mph8.0 kmh 30.11 in1019.6 mb - 0.00 in0.0 mm 0.00 in0.0 mm
01:30 PM 71.5°F21.9°C 63.2°F17.3°C 75% 3.8 mph S6.1 kmh S 5.0 mph8.0 kmh 30.11 in1019.6 mb - 0.00 in0.0 mm 0.00 in0.0 mm
01:40 PM 71.6°F22.0°C 63.7°F17.6°C 76% 4.8 mph S7.7 kmh S 8.0 mph12.9 kmh 30.11 in1019.6 mb - 0.00 in0.0 mm 0.00 in0.0 mm
01:50 PM 71.7°F22.1°C 63.7°F17.6°C 76% 6.0 mph S9.7 kmh S 10.0 mph16.1 kmh 30.11 in1019.6 mb - 0.00 in0.0 mm 0.00 in0.0 mm
02:00 PM 72.9°F22.7°C 64.2°F17.9°C 74% 4.0 mph S6.4 kmh S 7.0 mph11.3 kmh 30.11 in1019.6 mb - 0.00 in0.0 mm 0.00 in0.0 mm
02:10 PM 73.1°F22.8°C 63.5°F17.5°C 72% 6.9 mph S11.1 kmh S 8.0 mph12.9 kmh 30.10 in1019.3 mb - 0.00 in0.0 mm 0.00 in0.0 mm
02:20 PM 73.9°F23.3°C 64.7°F18.2°C 73% 5.6 mph S9.0 kmh S 9.0 mph14.5 kmh 30.10 in1019.3 mb - 0.00 in0.0 mm 0.00 in0.0 mm
02:30 PM 74.0°F23.3°C 64.4°F18.0°C 72% 6.3 mph S10.1 kmh S 9.0 mph14.5 kmh 30.10 in1019.3 mb - 0.00 in0.0 mm 0.00 in0.0 mm
02:40 PM 73.5°F23.1°C 64.3°F17.9°C 73% 8.7 mph S14.0 kmh S 13.0 mph20.9 kmh 30.09 in1019.0 mb - 0.00 in0.0 mm 0.00 in0.0 mm
02:50 PM 73.3°F22.9°C 64.1°F17.8°C 73% 5.8 mph S9.3 kmh S 7.0 mph11.3 kmh 30.09 in1019.0 mb - 0.00 in0.0 mm 0.00 in0.0 mm
03:00 PM 73.5°F23.1°C 63.9°F17.7°C 72% 9.1 mph S14.6 kmh S 13.0 mph20.9 kmh 30.09 in1019.0 mb - 0.00 in0.0 mm 0.00 in0.0 mm
03:10 PM 73.7°F23.2°C 64.1°F17.8°C 72% 6.4 mph S10.3 kmh S 9.0 mph14.5 kmh 30.09 in1019.0 mb - 0.00 in0.0 mm 0.00 in0.0 mm
03:20 PM 73.7°F23.2°C 63.7°F17.6°C 71% 7.8 mph S12.6 kmh S 12.0 mph19.3 kmh 30.09 in1019.0 mb - 0.00 in0.0 mm 0.00 in0.0 mm
03:30 PM 73.4°F23.0°C 63.8°F17.7°C 72% 7.4 mph SSW11.9 kmh SSW 12.0 mph19.3 kmh 30.09 in1019.0 mb - 0.00 in0.0 mm 0.00 in0.0 mm
03:40 PM 75.5°F24.2°C 64.6°F18.1°C 69% 10.3 mph WSW16.6 kmh WSW 16.0 mph25.7 kmh 30.09 in1019.0 mb - 0.00 in0.0 mm 0.00 in0.0 mm
03:50 PM 75.9°F24.4°C 64.5°F18.1°C 68% 6.7 mph WSW10.8 kmh WSW 10.0 mph16.1 kmh 30.09 in1019.0 mb - 0.00 in0.0 mm 0.00 in0.0 mm
04:00 PM 75.8°F24.3°C 64.1°F17.8°C 67% 7.8 mph WSW12.6 kmh WSW 13.0 mph20.9 kmh 30.08 in1018.6 mb - 0.00 in0.0 mm 0.00 in0.0 mm
04:10 PM 74.8°F23.8°C 63.5°F17.5°C 68% 7.7 mph WSW12.4 kmh WSW 12.0 mph19.3 kmh 30.08 in1018.6 mb - 0.00 in0.0 mm 0.00 in0.0 mm
04:20 PM 74.4°F23.6°C 63.9°F17.7°C 70% 9.2 mph WSW14.8 kmh WSW 16.0 mph25.7 kmh 30.08 in1018.6 mb - 0.00 in0.0 mm 0.00 in0.0 mm
04:30 PM 74.6°F23.7°C 63.8°F17.7°C 69% 8.2 mph W13.2 kmh W 14.0 mph22.5 kmh 30.08 in1018.6 mb - 0.00 in0.0 mm 0.00 in0.0 mm
04:40 PM 73.9°F23.3°C 63.9°F17.7°C 71% 9.2 mph W14.8 kmh W 12.0 mph19.3 kmh 30.08 in1018.6 mb - 0.00 in0.0 mm 0.00 in0.0 mm
04:50 PM 73.2°F22.9°C 64.0°F17.8°C 73% 9.3 mph W15.0 kmh W 13.0 mph20.9 kmh 30.07 in1018.3 mb - 0.00 in0.0 mm 0.00 in0.0 mm
05:00 PM 73.6°F23.1°C 64.4°F18.0°C 73% 9.0 mph W14.5 kmh W 12.0 mph19.3 kmh 30.08 in1018.6 mb - 0.00 in0.0 mm 0.00 in0.0 mm
05:10 PM 73.4°F23.0°C 64.2°F17.9°C 73% 7.2 mph WSW11.6 kmh WSW 8.0 mph12.9 kmh 30.07 in1018.3 mb - 0.00 in0.0 mm 0.00 in0.0 mm
05:20 PM 73.1°F22.8°C 64.3°F17.9°C 74% 6.0 mph WSW9.7 kmh WSW 10.0 mph16.1 kmh 30.08 in1018.6 mb - 0.00 in0.0 mm 0.00 in0.0 mm
05:30 PM 73.0°F22.8°C 64.2°F17.9°C 74% 6.2 mph WSW10.0 kmh WSW 9.0 mph14.5 kmh 30.08 in1018.6 mb - 0.00 in0.0 mm 0.00 in0.0 mm
05:40 PM 73.1°F22.8°C 64.3°F17.9°C 74% 5.8 mph WSW9.3 kmh WSW 10.0 mph16.1 kmh 30.08 in1018.6 mb - 0.00 in0.0 mm 0.00 in0.0 mm
05:50 PM 72.4°F22.4°C 64.0°F17.8°C 75% 4.1 mph WSW6.6 kmh WSW 6.0 mph9.7 kmh 30.08 in1018.6 mb - 0.00 in0.0 mm 0.00 in0.0 mm
06:00 PM 72.3°F22.4°C 63.6°F17.6°C 74% 2.6 mph WSW4.2 kmh WSW 3.0 mph4.8 kmh 30.09 in1019.0 mb - 0.00 in0.0 mm 0.00 in0.0 mm
06:10 PM 71.8°F22.1°C 63.4°F17.4°C 75% 1.8 mph WSW2.9 kmh WSW 4.0 mph6.4 kmh 30.08 in1018.6 mb - 0.00 in0.0 mm 0.00 in0.0 mm
06:20 PM 71.7°F22.1°C 63.4°F17.4°C 75% 2.9 mph WSW4.7 kmh WSW 4.0 mph6.4 kmh 30.08 in1018.6 mb - 0.00 in0.0 mm 0.00 in0.0 mm
06:30 PM 71.8°F22.1°C 63.1°F17.3°C 74% 2.4 mph WSW3.9 kmh WSW 4.0 mph6.4 kmh 30.08 in1018.6 mb - 0.00 in0.0 mm 0.00 in0.0 mm
06:40 PM 71.6°F22.0°C 63.3°F17.4°C 75% 1.9 mph WSW3.1 kmh WSW 3.0 mph4.8 kmh 30.08 in1018.6 mb - 0.00 in0.0 mm 0.00 in0.0 mm
06:50 PM 71.0°F21.7°C 63.4°F17.4°C 77% 2.0 mph WSW3.2 kmh WSW 3.0 mph4.8 kmh 30.08 in1018.6 mb - 0.00 in0.0 mm 0.00 in0.0 mm
07:00 PM 70.6°F21.4°C 63.4°F17.4°C 78% 1.7 mph WSW2.7 kmh WSW 4.0 mph6.4 kmh 30.09 in1019.0 mb - 0.00 in0.0 mm 0.00 in0.0 mm
07:10 PM 70.1°F21.2°C 63.3°F17.4°C 79% 0.5 mph WSW0.8 kmh WSW 3.0 mph4.8 kmh 30.09 in1019.0 mb - 0.00 in0.0 mm 0.00 in0.0 mm
07:20 PM 69.9°F21.1°C 63.1°F17.3°C 79% 1.7 mph WSW2.7 kmh WSW 2.0 mph3.2 kmh 30.09 in1019.0 mb - 0.00 in0.0 mm 0.00 in0.0 mm
07:30 PM 69.4°F20.8°C 62.6°F17.0°C 79% 1.0 mph WSW1.6 kmh WSW 2.0 mph3.2 kmh 30.09 in1019.0 mb - 0.00 in0.0 mm 0.00 in0.0 mm
07:40 PM 68.9°F20.5°C 62.5°F16.9°C 80% 1.4 mph WSW2.3 kmh WSW 2.0 mph3.2 kmh 30.09 in1019.0 mb - 0.00 in0.0 mm 0.00 in0.0 mm
07:50 PM 68.7°F20.4°C 62.3°F16.8°C 80% 1.2 mph WSW1.9 kmh WSW 2.0 mph3.2 kmh 30.09 in1019.0 mb - 0.00 in0.0 mm 0.00 in0.0 mm
08:00 PM 68.6°F20.3°C 62.2°F16.8°C 80% 0.9 mph WSW1.4 kmh WSW 2.0 mph3.2 kmh 30.09 in1019.0 mb - 0.00 in0.0 mm 0.00 in0.0 mm
08:10 PM 68.5°F20.3°C 62.1°F16.7°C 80% 1.3 mph WSW2.1 kmh WSW 2.0 mph3.2 kmh 30.09 in1019.0 mb - 0.00 in0.0 mm 0.00 in0.0 mm
08:20 PM 68.1°F20.1°C 61.7°F16.5°C 80% 2.5 mph WSW4.0 kmh WSW 4.0 mph6.4 kmh 30.10 in1019.3 mb - 0.00 in0.0 mm 0.00 in0.0 mm
08:30 PM 67.8°F19.9°C 61.8°F16.6°C 81% 1.5 mph WSW2.4 kmh WSW 3.0 mph4.8 kmh 30.10 in1019.3 mb - 0.00 in0.0 mm 0.00 in0.0 mm
08:40 PM 67.7°F19.8°C 61.7°F16.5°C 81% 2.1 mph WSW3.4 kmh WSW 3.0 mph4.8 kmh 30.11 in1019.6 mb - 0.00 in0.0 mm 0.00 in0.0 mm
08:50 PM 67.8°F19.9°C 62.1°F16.7°C 82% 2.0 mph WSW3.2 kmh WSW 3.0 mph4.8 kmh 30.11 in1019.6 mb - 0.00 in0.0 mm 0.00 in0.0 mm
09:00 PM 68.0°F20.0°C 62.3°F16.8°C 82% 2.3 mph WSW3.7 kmh WSW 4.0 mph6.4 kmh 30.11 in1019.6 mb - 0.00 in0.0 mm 0.00 in0.0 mm
09:10 PM 68.0°F20.0°C 62.3°F16.8°C 82% 2.2 mph WSW3.5 kmh WSW 3.0 mph4.8 kmh 30.11 in1019.6 mb - 0.00 in0.0 mm 0.00 in0.0 mm
09:20 PM 68.2°F20.1°C 62.5°F16.9°C 82% Calm Calm -- 30.11 in1019.6 mb - 0.00 in0.0 mm 0.00 in0.0 mm
09:30 PM 68.1°F20.1°C 62.1°F16.7°C 81% Calm Calm -- 30.12 in1020.0 mb - 0.00 in0.0 mm 0.00 in0.0 mm
09:40 PM 68.1°F20.1°C 62.1°F16.7°C 81% 2.1 mph WSW3.4 kmh WSW 3.0 mph4.8 kmh 30.12 in1020.0 mb - 0.00 in0.0 mm 0.00 in0.0 mm
09:50 PM 67.9°F19.9°C 61.9°F16.6°C 81% 2.0 mph WSW3.2 kmh WSW 3.0 mph4.8 kmh 30.12 in1020.0 mb - 0.00 in0.0 mm 0.00 in0.0 mm
10:00 PM 67.7°F19.8°C 61.7°F16.5°C 81% 2.0 mph WSW3.2 kmh WSW 3.0 mph4.8 kmh 30.12 in1020.0 mb - 0.00 in0.0 mm 0.00 in0.0 mm
10:10 PM 67.6°F19.8°C 61.6°F16.4°C 81% 2.2 mph WSW3.5 kmh WSW 3.0 mph4.8 kmh 30.13 in1020.3 mb - 0.00 in0.0 mm 0.00 in0.0 mm
10:20 PM 67.4°F19.7°C 61.4°F16.3°C 81% 2.6 mph WSW4.2 kmh WSW 4.0 mph6.4 kmh 30.13 in1020.3 mb - 0.00 in0.0 mm 0.00 in0.0 mm
10:30 PM 67.2°F19.6°C 61.1°F16.2°C 81% 2.8 mph WSW4.5 kmh WSW 4.0 mph6.4 kmh 30.12 in1020.0 mb - 0.00 in0.0 mm 0.00 in0.0 mm
10:40 PM 66.9°F19.4°C 60.8°F16.0°C 81% 2.5 mph WSW4.0 kmh WSW 3.0 mph4.8 kmh 30.12 in1020.0 mb - 0.00 in0.0 mm 0.00 in0.0 mm
10:50 PM 66.6°F19.2°C 60.6°F15.9°C 81% 1.7 mph WSW2.7 kmh WSW 2.0 mph3.2 kmh 30.12 in1020.0 mb - 0.00 in0.0 mm 0.00 in0.0 mm
11:00 PM 66.6°F19.2°C 60.6°F15.9°C 81% 1.5 mph WSW2.4 kmh WSW 4.0 mph6.4 kmh 30.12 in1020.0 mb - 0.00 in0.0 mm 0.00 in0.0 mm
11:10 PM 66.8°F19.3°C 60.4°F15.8°C 80% 0.9 mph WSW1.4 kmh WSW 3.0 mph4.8 kmh 30.13 in1020.3 mb - 0.00 in0.0 mm 0.00 in0.0 mm
11:20 PM 67.0°F19.4°C 60.6°F15.9°C 80% 0.1 mph WSW0.2 kmh WSW 1.0 mph1.6 kmh 30.12 in1020.0 mb - 0.00 in0.0 mm 0.00 in0.0 mm
11:30 PM 67.2°F19.6°C 60.8°F16.0°C 80% 0.1 mph WSW0.2 kmh WSW 2.0 mph3.2 kmh 30.13 in1020.3 mb - 0.00 in0.0 mm 0.00 in0.0 mm
11:40 PM 67.3°F19.6°C 60.6°F15.9°C 79% Calm Calm 1.0 mph1.6 kmh 30.13 in1020.3 mb - 0.00 in0.0 mm 0.00 in0.0 mm
11:50 PM 67.4°F19.7°C 60.3°F15.7°C 78% 0.4 mph WSW0.6 kmh WSW 2.0 mph3.2 kmh 30.13 in1020.3 mb - 0.00 in0.0 mm 0.00 in0.0 mm